sensor_id;sensor_type;location;lat;lon;timestamp;P1;durP1;ratioP1;P2;durP2;ratioP2
29876;SDS011;16750;49.002;9.204;2022-09-01T00:01:14;9.07;;;5.70;;
29876;SDS011;16750;49.002;9.204;2022-09-01T00:03:42;7.38;;;6.10;;
29876;SDS011;16750;49.002;9.204;2022-09-01T00:06:11;8.43;;;6.15;;
29876;SDS011;16750;49.002;9.204;2022-09-01T00:08:36;8.20;;;6.18;;
29876;SDS011;16750;49.002;9.204;2022-09-01T00:11:02;7.65;;;6.28;;
29876;SDS011;16750;49.002;9.204;2022-09-01T00:13:27;6.63;;;5.93;;
29876;SDS011;16750;49.002;9.204;2022-09-01T00:15:57;8.40;;;5.88;;
29876;SDS011;16750;49.002;9.204;2022-09-01T00:18:23;8.25;;;6.20;;
29876;SDS011;16750;49.002;9.204;2022-09-01T00:20:49;9.60;;;6.22;;
29876;SDS011;16750;49.002;9.204;2022-09-01T00:23:14;6.20;;;5.60;;
29876;SDS011;16750;49.002;9.204;2022-09-01T00:25:39;7.30;;;5.53;;
29876;SDS011;16750;49.002;9.204;2022-09-01T00:28:05;6.97;;;5.90;;
29876;SDS011;16750;49.002;9.204;2022-09-01T00:30:30;8.57;;;6.55;;
29876;SDS011;16750;49.002;9.204;2022-09-01T00:32:56;6.72;;;5.72;;
29876;SDS011;16750;49.002;9.204;2022-09-01T00:35:21;7.25;;;6.32;;
29876;SDS011;16750;49.002;9.204;2022-09-01T00:37:47;7.35;;;6.15;;
29876;SDS011;16750;49.002;9.204;2022-09-01T00:40:14;8.50;;;6.05;;
29876;SDS011;16750;49.002;9.204;2022-09-01T00:42:41;8.13;;;5.70;;
29876;SDS011;16750;49.002;9.204;2022-09-01T00:45:08;7.30;;;6.32;;
29876;SDS011;16750;49.002;9.204;2022-09-01T00:47:35;8.10;;;6.57;;
29876;SDS011;16750;49.002;9.204;2022-09-01T00:50:02;7.57;;;6.78;;
29876;SDS011;16750;49.002;9.204;2022-09-01T00:52:31;10.02;;;6.57;;
29876;SDS011;16750;49.002;9.204;2022-09-01T00:55:04;7.47;;;6.68;;
29876;SDS011;16750;49.002;9.204;2022-09-01T00:57:34;9.65;;;7.00;;
29876;SDS011;16750;49.002;9.204;2022-09-01T01:00:03;7.75;;;6.90;;
29876;SDS011;16750;49.002;9.204;2022-09-01T01:02:32;9.93;;;7.25;;
29876;SDS011;16750;49.002;9.204;2022-09-01T01:04:58;7.30;;;6.60;;
29876;SDS011;16750;49.002;9.204;2022-09-01T01:07:24;7.78;;;6.97;;
29876;SDS011;16750;49.002;9.204;2022-09-01T01:09:52;7.47;;;6.75;;
29876;SDS011;16750;49.002;9.204;2022-09-01T01:12:18;7.60;;;6.78;;
29876;SDS011;16750;49.002;9.204;2022-09-01T01:14:44;7.80;;;7.00;;
29876;SDS011;16750;49.002;9.204;2022-09-01T01:17:14;8.50;;;6.90;;
29876;SDS011;16750;49.002;9.204;2022-09-01T01:19:42;8.32;;;5.43;;
29876;SDS011;16750;49.002;9.204;2022-09-01T01:22:34;8.02;;;7.22;;
29876;SDS011;16750;49.002;9.204;2022-09-01T01:25:26;7.60;;;5.88;;
29876;SDS011;16750;49.002;9.204;2022-09-01T01:28:08;7.40;;;6.70;;
29876;SDS011;16750;49.002;9.204;2022-09-01T01:31:02;7.00;;;5.88;;
29876;SDS011;16750;49.002;9.204;2022-09-01T01:36:22;6.80;;;6.10;;
29876;SDS011;16750;49.002;9.204;2022-09-01T01:39:08;9.32;;;7.00;;
29876;SDS011;16750;49.002;9.204;2022-09-01T01:41:40;7.95;;;7.10;;
29876;SDS011;16750;49.002;9.204;2022-09-01T01:44:10;8.65;;;7.45;;
29876;SDS011;16750;49.002;9.204;2022-09-01T01:46:42;9.30;;;7.60;;
29876;SDS011;16750;49.002;9.204;2022-09-01T01:49:10;9.40;;;7.43;;
29876;SDS011;16750;49.002;9.204;2022-09-01T01:51:40;9.82;;;7.63;;
29876;SDS011;16750;49.002;9.204;2022-09-01T01:54:06;8.57;;;7.45;;
29876;SDS011;16750;49.002;9.204;2022-09-01T01:56:32;9.35;;;7.65;;
29876;SDS011;16750;49.002;9.204;2022-09-01T01:59:00;9.35;;;7.30;;
29876;SDS011;16750;49.002;9.204;2022-09-01T02:01:26;9.00;;;7.63;;
29876;SDS011;16750;49.002;9.204;2022-09-01T02:03:54;8.05;;;7.05;;
29876;SDS011;16750;49.002;9.204;2022-09-01T02:06:21;7.70;;;6.70;;
29876;SDS011;16750;49.002;9.204;2022-09-01T02:08:53;10.70;;;7.47;;
29876;SDS011;16750;49.002;9.204;2022-09-01T02:11:27;8.35;;;7.45;;
29876;SDS011;16750;49.002;9.204;2022-09-01T02:13:53;8.98;;;7.85;;
29876;SDS011;16750;49.002;9.204;2022-09-01T02:16:24;9.32;;;7.30;;
29876;SDS011;16750;49.002;9.204;2022-09-01T02:18:51;9.68;;;7.40;;
29876;SDS011;16750;49.002;9.204;2022-09-01T02:21:18;8.68;;;6.70;;
29876;SDS011;16750;49.002;9.204;2022-09-01T02:23:47;8.55;;;7.65;;
29876;SDS011;16750;49.002;9.204;2022-09-01T02:26:19;9.00;;;7.68;;
29876;SDS011;16750;49.002;9.204;2022-09-01T02:28:47;8.13;;;7.13;;
29876;SDS011;16750;49.002;9.204;2022-09-01T02:31:13;9.13;;;8.23;;
29876;SDS011;16750;49.002;9.204;2022-09-01T02:33:40;11.52;;;8.15;;
29876;SDS011;16750;49.002;9.204;2022-09-01T02:36:11;8.43;;;7.43;;
29876;SDS011;16750;49.002;9.204;2022-09-01T02:38:40;8.48;;;7.50;;
29876;SDS011;16750;49.002;9.204;2022-09-01T02:41:10;8.70;;;7.80;;
29876;SDS011;16750;49.002;9.204;2022-09-01T02:43:37;8.30;;;7.25;;
29876;SDS011;16750;49.002;9.204;2022-09-01T02:46:04;10.32;;;8.10;;
29876;SDS011;16750;49.002;9.204;2022-09-01T02:48:33;9.27;;;8.10;;
29876;SDS011;16750;49.002;9.204;2022-09-01T02:51:03;10.38;;;8.00;;
29876;SDS011;16750;49.002;9.204;2022-09-01T02:53:34;9.98;;;8.70;;
29876;SDS011;16750;49.002;9.204;2022-09-01T02:56:02;9.82;;;8.23;;
29876;SDS011;16750;49.002;9.204;2022-09-01T02:58:33;10.98;;;8.80;;
29876;SDS011;16750;49.002;9.204;2022-09-01T03:01:05;8.02;;;6.93;;
29876;SDS011;16750;49.002;9.204;2022-09-01T03:03:37;9.60;;;8.60;;
29876;SDS011;16750;49.002;9.204;2022-09-01T03:06:02;11.15;;;8.90;;
29876;SDS011;16750;49.002;9.204;2022-09-01T03:08:33;9.82;;;8.52;;
29876;SDS011;16750;49.002;9.204;2022-09-01T03:11:00;10.80;;;7.75;;
29876;SDS011;16750;49.002;9.204;2022-09-01T03:13:26;10.65;;;8.30;;
29876;SDS011;16750;49.002;9.204;2022-09-01T03:15:53;9.25;;;7.78;;
29876;SDS011;16750;49.002;9.204;2022-09-01T03:18:19;8.50;;;7.60;;
29876;SDS011;16750;49.002;9.204;2022-09-01T03:20:45;10.40;;;8.18;;
29876;SDS011;16750;49.002;9.204;2022-09-01T03:23:12;10.00;;;8.52;;
29876;SDS011;16750;49.002;9.204;2022-09-01T03:25:41;11.27;;;8.82;;
29876;SDS011;16750;49.002;9.204;2022-09-01T03:28:08;13.15;;;9.07;;
29876;SDS011;16750;49.002;9.204;2022-09-01T03:30:36;10.80;;;8.63;;
29876;SDS011;16750;49.002;9.204;2022-09-01T03:33:04;10.10;;;8.32;;
29876;SDS011;16750;49.002;9.204;2022-09-01T03:35:31;11.40;;;9.15;;
29876;SDS011;16750;49.002;9.204;2022-09-01T03:37:58;9.55;;;8.57;;
29876;SDS011;16750;49.002;9.204;2022-09-01T03:40:27;11.95;;;10.63;;
29876;SDS011;16750;49.002;9.204;2022-09-01T03:42:57;12.55;;;11.25;;
29876;SDS011;16750;49.002;9.204;2022-09-01T03:45:23;12.43;;;9.75;;
29876;SDS011;16750;49.002;9.204;2022-09-01T03:47:49;13.25;;;11.85;;
29876;SDS011;16750;49.002;9.204;2022-09-01T03:50:17;14.43;;;11.82;;
29876;SDS011;16750;49.002;9.204;2022-09-01T03:52:46;11.43;;;10.25;;
29876;SDS011;16750;49.002;9.204;2022-09-01T03:55:13;13.77;;;12.23;;
29876;SDS011;16750;49.002;9.204;2022-09-01T03:57:49;14.85;;;13.25;;
29876;SDS011;16750;49.002;9.204;2022-09-01T04:00:15;13.82;;;12.40;;
29876;SDS011;16750;49.002;9.204;2022-09-01T04:02:51;15.88;;;13.52;;
29876;SDS011;16750;49.002;9.204;2022-09-01T04:05:23;14.75;;;12.35;;
29876;SDS011;16750;49.002;9.204;2022-09-01T04:07:54;16.15;;;14.00;;
29876;SDS011;16750;49.002;9.204;2022-09-01T04:10:21;17.63;;;13.88;;
29876;SDS011;16750;49.002;9.204;2022-09-01T04:12:47;14.20;;;12.65;;
29876;SDS011;16750;49.002;9.204;2022-09-01T04:15:15;15.02;;;13.43;;
29876;SDS011;16750;49.002;9.204;2022-09-01T04:17:42;13.25;;;11.60;;
29876;SDS011;16750;49.002;9.204;2022-09-01T04:20:27;14.63;;;13.00;;
29876;SDS011;16750;49.002;9.204;2022-09-01T04:22:53;16.50;;;13.70;;
29876;SDS011;16750;49.002;9.204;2022-09-01T04:25:20;16.05;;;13.85;;
29876;SDS011;16750;49.002;9.204;2022-09-01T04:27:48;14.85;;;12.48;;
29876;SDS011;16750;49.002;9.204;2022-09-01T04:30:14;18.58;;;14.77;;
29876;SDS011;16750;49.002;9.204;2022-09-01T04:32:44;15.23;;;12.93;;
29876;SDS011;16750;49.002;9.204;2022-09-01T04:35:11;15.65;;;12.63;;
29876;SDS011;16750;49.002;9.204;2022-09-01T04:37:41;16.23;;;13.40;;
29876;SDS011;16750;49.002;9.204;2022-09-01T04:40:07;16.92;;;13.75;;
29876;SDS011;16750;49.002;9.204;2022-09-01T04:42:34;15.75;;;12.35;;
29876;SDS011;16750;49.002;9.204;2022-09-01T04:45:01;15.13;;;13.27;;
29876;SDS011;16750;49.002;9.204;2022-09-01T04:47:28;16.95;;;14.65;;
29876;SDS011;16750;49.002;9.204;2022-09-01T04:49:55;16.63;;;14.65;;
29876;SDS011;16750;49.002;9.204;2022-09-01T04:52:26;17.42;;;14.25;;
29876;SDS011;16750;49.002;9.204;2022-09-01T04:54:52;14.68;;;12.23;;
29876;SDS011;16750;49.002;9.204;2022-09-01T04:57:22;16.65;;;13.60;;
29876;SDS011;16750;49.002;9.204;2022-09-01T04:59:47;16.55;;;13.93;;
29876;SDS011;16750;49.002;9.204;2022-09-01T05:02:14;20.42;;;15.18;;
29876;SDS011;16750;49.002;9.204;2022-09-01T05:04:40;18.48;;;14.35;;
29876;SDS011;16750;49.002;9.204;2022-09-01T05:07:11;17.98;;;15.23;;
29876;SDS011;16750;49.002;9.204;2022-09-01T05:09:40;19.38;;;15.98;;
29876;SDS011;16750;49.002;9.204;2022-09-01T05:12:14;21.30;;;17.25;;
29876;SDS011;16750;49.002;9.204;2022-09-01T05:14:42;19.15;;;16.85;;
29876;SDS011;16750;49.002;9.204;2022-09-01T05:17:13;26.13;;;21.08;;
29876;SDS011;16750;49.002;9.204;2022-09-01T05:19:42;29.42;;;23.02;;
29876;SDS011;16750;49.002;9.204;2022-09-01T05:22:11;30.55;;;22.55;;
29876;SDS011;16750;49.002;9.204;2022-09-01T05:24:41;31.48;;;23.95;;
29876;SDS011;16750;49.002;9.204;2022-09-01T05:27:08;30.55;;;24.70;;
29876;SDS011;16750;49.002;9.204;2022-09-01T05:29:35;32.03;;;24.30;;
29876;SDS011;16750;49.002;9.204;2022-09-01T05:32:04;34.03;;;24.50;;
29876;SDS011;16750;49.002;9.204;2022-09-01T05:34:34;30.42;;;22.95;;
29876;SDS011;16750;49.002;9.204;2022-09-01T05:37:02;33.00;;;25.38;;
29876;SDS011;16750;49.002;9.204;2022-09-01T05:39:29;30.48;;;22.52;;
29876;SDS011;16750;49.002;9.204;2022-09-01T05:41:57;31.45;;;23.73;;
29876;SDS011;16750;49.002;9.204;2022-09-01T05:44:23;29.48;;;22.50;;
29876;SDS011;16750;49.002;9.204;2022-09-01T05:46:51;29.73;;;23.65;;
29876;SDS011;16750;49.002;9.204;2022-09-01T05:49:18;30.42;;;22.23;;
29876;SDS011;16750;49.002;9.204;2022-09-01T05:51:46;29.98;;;22.17;;
29876;SDS011;16750;49.002;9.204;2022-09-01T05:54:15;26.70;;;21.25;;
29876;SDS011;16750;49.002;9.204;2022-09-01T05:56:43;27.40;;;20.90;;
29876;SDS011;16750;49.002;9.204;2022-09-01T05:59:09;27.17;;;21.02;;
29876;SDS011;16750;49.002;9.204;2022-09-01T06:01:37;26.60;;;20.88;;
29876;SDS011;16750;49.002;9.204;2022-09-01T06:04:06;26.67;;;21.02;;
29876;SDS011;16750;49.002;9.204;2022-09-01T06:06:35;25.95;;;21.63;;
29876;SDS011;16750;49.002;9.204;2022-09-01T06:09:05;27.48;;;21.15;;
29876;SDS011;16750;49.002;9.204;2022-09-01T06:11:32;27.90;;;21.90;;
29876;SDS011;16750;49.002;9.204;2022-09-01T06:13:58;27.10;;;21.65;;
29876;SDS011;16750;49.002;9.204;2022-09-01T06:16:25;25.15;;;20.17;;
29876;SDS011;16750;49.002;9.204;2022-09-01T06:18:54;23.55;;;19.85;;
29876;SDS011;16750;49.002;9.204;2022-09-01T06:21:24;22.67;;;18.95;;
29876;SDS011;16750;49.002;9.204;2022-09-01T06:23:50;25.55;;;20.08;;
29876;SDS011;16750;49.002;9.204;2022-09-01T06:26:21;22.55;;;18.40;;
29876;SDS011;16750;49.002;9.204;2022-09-01T06:28:51;21.33;;;18.15;;
29876;SDS011;16750;49.002;9.204;2022-09-01T06:31:19;19.17;;;16.55;;
29876;SDS011;16750;49.002;9.204;2022-09-01T06:33:53;20.30;;;16.00;;
29876;SDS011;16750;49.002;9.204;2022-09-01T06:36:20;18.40;;;16.40;;
29876;SDS011;16750;49.002;9.204;2022-09-01T06:38:48;18.23;;;14.43;;
29876;SDS011;16750;49.002;9.204;2022-09-01T06:41:16;17.13;;;14.30;;
29876;SDS011;16750;49.002;9.204;2022-09-01T06:43:47;16.95;;;14.50;;
29876;SDS011;16750;49.002;9.204;2022-09-01T06:46:14;17.58;;;14.10;;
29876;SDS011;16750;49.002;9.204;2022-09-01T06:48:42;14.25;;;12.75;;
29876;SDS011;16750;49.002;9.204;2022-09-01T06:51:20;14.25;;;12.05;;
29876;SDS011;16750;49.002;9.204;2022-09-01T06:53:49;15.73;;;13.23;;
29876;SDS011;16750;49.002;9.204;2022-09-01T06:56:24;14.05;;;12.55;;
29876;SDS011;16750;49.002;9.204;2022-09-01T06:58:54;15.20;;;13.60;;
29876;SDS011;16750;49.002;9.204;2022-09-01T07:01:21;14.85;;;13.05;;
29876;SDS011;16750;49.002;9.204;2022-09-01T07:03:49;18.60;;;14.38;;
29876;SDS011;16750;49.002;9.204;2022-09-01T07:06:24;15.02;;;12.95;;
29876;SDS011;16750;49.002;9.204;2022-09-01T07:09:14;16.05;;;13.43;;
29876;SDS011;16750;49.002;9.204;2022-09-01T07:11:41;15.13;;;13.23;;
29876;SDS011;16750;49.002;9.204;2022-09-01T07:14:06;14.00;;;12.10;;
29876;SDS011;16750;49.002;9.204;2022-09-01T07:16:34;13.73;;;11.13;;
29876;SDS011;16750;49.002;9.204;2022-09-01T07:19:05;13.15;;;11.27;;
29876;SDS011;16750;49.002;9.204;2022-09-01T07:21:38;13.38;;;11.77;;
29876;SDS011;16750;49.002;9.204;2022-09-01T07:24:04;12.38;;;10.90;;
29876;SDS011;16750;49.002;9.204;2022-09-01T07:26:31;13.77;;;11.52;;
29876;SDS011;16750;49.002;9.204;2022-09-01T07:28:58;12.68;;;11.27;;
29876;SDS011;16750;49.002;9.204;2022-09-01T07:31:34;13.27;;;10.35;;
29876;SDS011;16750;49.002;9.204;2022-09-01T07:34:03;11.43;;;10.13;;
29876;SDS011;16750;49.002;9.204;2022-09-01T07:36:31;13.07;;;11.15;;
29876;SDS011;16750;49.002;9.204;2022-09-01T07:38:57;12.02;;;9.02;;
29876;SDS011;16750;49.002;9.204;2022-09-01T07:41:25;10.40;;;8.70;;
29876;SDS011;16750;49.002;9.204;2022-09-01T07:44:15;11.18;;;8.77;;
29876;SDS011;16750;49.002;9.204;2022-09-01T07:46:43;8.00;;;7.05;;
29876;SDS011;16750;49.002;9.204;2022-09-01T07:49:17;10.88;;;7.30;;
29876;SDS011;16750;49.002;9.204;2022-09-01T07:51:43;8.80;;;7.68;;
29876;SDS011;16750;49.002;9.204;2022-09-01T07:54:12;10.13;;;8.60;;
29876;SDS011;16750;49.002;9.204;2022-09-01T07:56:38;10.10;;;8.93;;
29876;SDS011;16750;49.002;9.204;2022-09-01T07:59:04;10.35;;;9.13;;
29876;SDS011;16750;49.002;9.204;2022-09-01T08:01:31;10.90;;;7.90;;
29876;SDS011;16750;49.002;9.204;2022-09-01T08:03:58;8.57;;;7.07;;
29876;SDS011;16750;49.002;9.204;2022-09-01T08:06:27;10.25;;;7.85;;
29876;SDS011;16750;49.002;9.204;2022-09-01T08:08:53;10.05;;;7.40;;
29876;SDS011;16750;49.002;9.204;2022-09-01T08:11:25;7.78;;;6.40;;
29876;SDS011;16750;49.002;9.204;2022-09-01T08:13:53;7.75;;;5.80;;
29876;SDS011;16750;49.002;9.204;2022-09-01T08:16:19;10.00;;;6.68;;
29876;SDS011;16750;49.002;9.204;2022-09-01T08:18:47;7.93;;;6.25;;
29876;SDS011;16750;49.002;9.204;2022-09-01T08:21:23;7.63;;;5.15;;
29876;SDS011;16750;49.002;9.204;2022-09-01T08:24:00;5.90;;;4.60;;
29876;SDS011;16750;49.002;9.204;2022-09-01T08:26:27;6.90;;;4.78;;
29876;SDS011;16750;49.002;9.204;2022-09-01T08:28:53;6.95;;;4.60;;
29876;SDS011;16750;49.002;9.204;2022-09-01T08:31:25;7.20;;;4.47;;
29876;SDS011;16750;49.002;9.204;2022-09-01T08:33:52;5.22;;;4.15;;
29876;SDS011;16750;49.002;9.204;2022-09-01T08:36:19;6.13;;;4.05;;
29876;SDS011;16750;49.002;9.204;2022-09-01T08:38:45;7.45;;;4.15;;
29876;SDS011;16750;49.002;9.204;2022-09-01T08:41:20;5.55;;;3.85;;
29876;SDS011;16750;49.002;9.204;2022-09-01T08:44:15;4.60;;;3.50;;
29876;SDS011;16750;49.002;9.204;2022-09-01T08:46:47;4.47;;;3.20;;
29876;SDS011;16750;49.002;9.204;2022-09-01T08:49:18;4.47;;;3.22;;
29876;SDS011;16750;49.002;9.204;2022-09-01T08:57:19;4.65;;;3.55;;
29876;SDS011;16750;49.002;9.204;2022-09-01T09:00:09;4.17;;;3.40;;
29876;SDS011;16750;49.002;9.204;2022-09-01T09:05:21;8.05;;;3.40;;
29876;SDS011;16750;49.002;9.204;2022-09-01T09:17:01;4.00;;;2.95;;
29876;SDS011;16750;49.002;9.204;2022-09-01T09:19:30;6.43;;;3.30;;
29876;SDS011;16750;49.002;9.204;2022-09-01T09:22:03;4.45;;;3.10;;
29876;SDS011;16750;49.002;9.204;2022-09-01T09:24:35;4.15;;;3.00;;
29876;SDS011;16750;49.002;9.204;2022-09-01T09:32:43;4.45;;;3.20;;
29876;SDS011;16750;49.002;9.204;2022-09-01T09:37:55;6.10;;;3.70;;
29876;SDS011;16750;49.002;9.204;2022-09-01T09:40:54;4.60;;;3.60;;
29876;SDS011;16750;49.002;9.204;2022-09-01T09:43:29;4.00;;;3.00;;
29876;SDS011;16750;49.002;9.204;2022-09-01T09:48:48;3.95;;;2.70;;
29876;SDS011;16750;49.002;9.204;2022-09-01T09:51:29;5.28;;;3.00;;
29876;SDS011;16750;49.002;9.204;2022-09-01T09:54:09;3.78;;;3.00;;
29876;SDS011;16750;49.002;9.204;2022-09-01T09:57:01;4.45;;;3.30;;
29876;SDS011;16750;49.002;9.204;2022-09-01T09:59:40;6.00;;;3.42;;
29876;SDS011;16750;49.002;9.204;2022-09-01T10:04:58;5.07;;;3.40;;
29876;SDS011;16750;49.002;9.204;2022-09-01T10:09:52;6.25;;;3.10;;
29876;SDS011;16750;49.002;9.204;2022-09-01T10:12:26;5.28;;;3.40;;
29876;SDS011;16750;49.002;9.204;2022-09-01T10:15:05;4.38;;;3.35;;
29876;SDS011;16750;49.002;9.204;2022-09-01T10:17:39;5.15;;;3.40;;
29876;SDS011;16750;49.002;9.204;2022-09-01T10:20:17;4.53;;;3.00;;
29876;SDS011;16750;49.002;9.204;2022-09-01T10:22:45;3.70;;;3.00;;
29876;SDS011;16750;49.002;9.204;2022-09-01T10:25:19;3.40;;;2.83;;
29876;SDS011;16750;49.002;9.204;2022-09-01T10:27:48;6.05;;;3.20;;
29876;SDS011;16750;49.002;9.204;2022-09-01T10:30:18;3.60;;;2.50;;
29876;SDS011;16750;49.002;9.204;2022-09-01T10:32:46;3.60;;;2.67;;
29876;SDS011;16750;49.002;9.204;2022-09-01T10:35:22;3.90;;;2.70;;
29876;SDS011;16750;49.002;9.204;2022-09-01T10:37:54;3.55;;;2.53;;
29876;SDS011;16750;49.002;9.204;2022-09-01T10:42:57;4.88;;;2.50;;
29876;SDS011;16750;49.002;9.204;2022-09-01T10:45:31;4.55;;;2.92;;
29876;SDS011;16750;49.002;9.204;2022-09-01T10:50:43;5.38;;;2.90;;
29876;SDS011;16750;49.002;9.204;2022-09-01T10:53:14;4.07;;;2.58;;
29876;SDS011;16750;49.002;9.204;2022-09-01T10:56:07;4.32;;;2.85;;
29876;SDS011;16750;49.002;9.204;2022-09-01T11:04:08;5.07;;;2.50;;
29876;SDS011;16750;49.002;9.204;2022-09-01T11:09:26;3.78;;;2.72;;
29876;SDS011;16750;49.002;9.204;2022-09-01T11:14:32;3.78;;;2.30;;
29876;SDS011;16750;49.002;9.204;2022-09-01T11:17:16;2.90;;;2.13;;
29876;SDS011;16750;49.002;9.204;2022-09-01T11:19:44;3.03;;;2.25;;
29876;SDS011;16750;49.002;9.204;2022-09-01T11:22:38;3.53;;;2.25;;
29876;SDS011;16750;49.002;9.204;2022-09-01T11:25:12;3.93;;;2.40;;
29876;SDS011;16750;49.002;9.204;2022-09-01T11:28:02;4.80;;;2.53;;
29876;SDS011;16750;49.002;9.204;2022-09-01T11:36:26;3.45;;;2.17;;
29876;SDS011;16750;49.002;9.204;2022-09-01T11:38:55;4.32;;;2.17;;
29876;SDS011;16750;49.002;9.204;2022-09-01T11:41:31;5.28;;;2.40;;
29876;SDS011;16750;49.002;9.204;2022-09-01T11:47:23;4.18;;;2.00;;
29876;SDS011;16750;49.002;9.204;2022-09-01T11:50:05;6.45;;;2.95;;
29876;SDS011;16750;49.002;9.204;2022-09-01T11:52:40;2.97;;;2.13;;
29876;SDS011;16750;49.002;9.204;2022-09-01T11:58:01;4.10;;;2.03;;
29876;SDS011;16750;49.002;9.204;2022-09-01T12:00:29;3.45;;;2.25;;
29876;SDS011;16750;49.002;9.204;2022-09-01T12:03:00;2.90;;;2.10;;
29876;SDS011;16750;49.002;9.204;2022-09-01T12:05:27;3.13;;;2.45;;
29876;SDS011;16750;49.002;9.204;2022-09-01T12:07:53;4.00;;;2.88;;
29876;SDS011;16750;49.002;9.204;2022-09-01T12:10:28;3.33;;;2.28;;
29876;SDS011;16750;49.002;9.204;2022-09-01T12:15:53;5.93;;;2.40;;
29876;SDS011;16750;49.002;9.204;2022-09-01T12:20:59;5.47;;;2.63;;
29876;SDS011;16750;49.002;9.204;2022-09-01T12:25:57;3.53;;;2.50;;
29876;SDS011;16750;49.002;9.204;2022-09-01T12:28:28;4.88;;;2.30;;
29876;SDS011;16750;49.002;9.204;2022-09-01T12:30:57;3.78;;;2.50;;
29876;SDS011;16750;49.002;9.204;2022-09-01T12:33:24;4.00;;;2.13;;
29876;SDS011;16750;49.002;9.204;2022-09-01T12:35:50;3.25;;;2.38;;
29876;SDS011;16750;49.002;9.204;2022-09-01T12:40:45;6.30;;;2.60;;
29876;SDS011;16750;49.002;9.204;2022-09-01T12:43:30;3.65;;;2.63;;
29876;SDS011;16750;49.002;9.204;2022-09-01T12:45:58;4.63;;;2.60;;
29876;SDS011;16750;49.002;9.204;2022-09-01T12:48:27;3.95;;;2.50;;
29876;SDS011;16750;49.002;9.204;2022-09-01T12:50:55;3.95;;;2.72;;
29876;SDS011;16750;49.002;9.204;2022-09-01T12:53:23;3.83;;;2.40;;
29876;SDS011;16750;49.002;9.204;2022-09-01T12:55:56;6.05;;;3.20;;
29876;SDS011;16750;49.002;9.204;2022-09-01T12:58:28;3.05;;;2.45;;
29876;SDS011;16750;49.002;9.204;2022-09-01T13:03:25;3.65;;;2.58;;
29876;SDS011;16750;49.002;9.204;2022-09-01T13:05:53;4.25;;;2.67;;
29876;SDS011;16750;49.002;9.204;2022-09-01T13:08:27;4.13;;;2.78;;
29876;SDS011;16750;49.002;9.204;2022-09-01T13:13:31;4.50;;;2.55;;
29876;SDS011;16750;49.002;9.204;2022-09-01T13:16:02;3.85;;;2.70;;
29876;SDS011;16750;49.002;9.204;2022-09-01T13:18:34;4.20;;;2.50;;
29876;SDS011;16750;49.002;9.204;2022-09-01T13:21:00;4.05;;;2.97;;
29876;SDS011;16750;49.002;9.204;2022-09-01T13:23:25;3.47;;;2.80;;
29876;SDS011;16750;49.002;9.204;2022-09-01T13:25:51;5.57;;;2.80;;
29876;SDS011;16750;49.002;9.204;2022-09-01T13:28:18;3.17;;;2.40;;
29876;SDS011;16750;49.002;9.204;2022-09-01T13:30:52;4.18;;;2.53;;
29876;SDS011;16750;49.002;9.204;2022-09-01T13:33:20;3.17;;;2.40;;
29876;SDS011;16750;49.002;9.204;2022-09-01T13:35:47;3.60;;;2.55;;
29876;SDS011;16750;49.002;9.204;2022-09-01T13:38:12;3.10;;;2.30;;
29876;SDS011;16750;49.002;9.204;2022-09-01T13:40:40;6.20;;;2.35;;
29876;SDS011;16750;49.002;9.204;2022-09-01T13:43:07;4.82;;;2.20;;
29876;SDS011;16750;49.002;9.204;2022-09-01T13:45:39;3.05;;;2.20;;
29876;SDS011;16750;49.002;9.204;2022-09-01T13:48:11;3.20;;;2.10;;
29876;SDS011;16750;49.002;9.204;2022-09-01T13:50:37;3.40;;;2.13;;
29876;SDS011;16750;49.002;9.204;2022-09-01T13:53:03;3.85;;;2.15;;
29876;SDS011;16750;49.002;9.204;2022-09-01T13:55:29;2.33;;;1.85;;
29876;SDS011;16750;49.002;9.204;2022-09-01T13:58:02;4.65;;;2.05;;
29876;SDS011;16750;49.002;9.204;2022-09-01T14:00:29;3.00;;;1.90;;
29876;SDS011;16750;49.002;9.204;2022-09-01T14:02:57;2.70;;;1.98;;
29876;SDS011;16750;49.002;9.204;2022-09-01T14:05:29;3.55;;;1.98;;
29876;SDS011;16750;49.002;9.204;2022-09-01T14:07:56;2.60;;;1.73;;
29876;SDS011;16750;49.002;9.204;2022-09-01T14:10:23;5.47;;;2.00;;
29876;SDS011;16750;49.002;9.204;2022-09-01T14:12:50;3.88;;;1.70;;
29876;SDS011;16750;49.002;9.204;2022-09-01T14:15:16;3.28;;;1.90;;
29876;SDS011;16750;49.002;9.204;2022-09-01T14:17:43;3.25;;;1.80;;
29876;SDS011;16750;49.002;9.204;2022-09-01T14:20:12;5.03;;;1.80;;
29876;SDS011;16750;49.002;9.204;2022-09-01T14:22:40;2.72;;;1.67;;
29876;SDS011;16750;49.002;9.204;2022-09-01T14:25:06;3.10;;;1.83;;
29876;SDS011;16750;49.002;9.204;2022-09-01T14:27:32;3.83;;;1.90;;
29876;SDS011;16750;49.002;9.204;2022-09-01T14:29:58;3.38;;;1.65;;
29876;SDS011;16750;49.002;9.204;2022-09-01T14:32:24;4.97;;;1.67;;
29876;SDS011;16750;49.002;9.204;2022-09-01T14:34:54;2.92;;;1.60;;
29876;SDS011;16750;49.002;9.204;2022-09-01T14:37:20;3.40;;;1.70;;
29876;SDS011;16750;49.002;9.204;2022-09-01T14:39:54;2.55;;;1.35;;
29876;SDS011;16750;49.002;9.204;2022-09-01T14:42:20;3.35;;;1.77;;
29876;SDS011;16750;49.002;9.204;2022-09-01T14:44:50;3.00;;;1.83;;
29876;SDS011;16750;49.002;9.204;2022-09-01T14:47:16;2.35;;;1.73;;
29876;SDS011;16750;49.002;9.204;2022-09-01T14:49:42;2.70;;;1.55;;
29876;SDS011;16750;49.002;9.204;2022-09-01T14:52:08;3.53;;;1.60;;
29876;SDS011;16750;49.002;9.204;2022-09-01T14:54:36;4.57;;;1.63;;
29876;SDS011;16750;49.002;9.204;2022-09-01T14:57:03;2.22;;;1.60;;
29876;SDS011;16750;49.002;9.204;2022-09-01T14:59:30;2.78;;;1.80;;
29876;SDS011;16750;49.002;9.204;2022-09-01T15:01:56;2.42;;;1.50;;
29876;SDS011;16750;49.002;9.204;2022-09-01T15:04:21;4.47;;;1.73;;
29876;SDS011;16750;49.002;9.204;2022-09-01T15:06:47;4.40;;;1.60;;
29876;SDS011;16750;49.002;9.204;2022-09-01T15:09:12;2.35;;;1.75;;
29876;SDS011;16750;49.002;9.204;2022-09-01T15:11:39;2.90;;;1.65;;
29876;SDS011;16750;49.002;9.204;2022-09-01T15:14:08;3.65;;;1.90;;
29876;SDS011;16750;49.002;9.204;2022-09-01T15:16:34;3.30;;;1.85;;
29876;SDS011;16750;49.002;9.204;2022-09-01T15:19:04;2.45;;;1.58;;
29876;SDS011;16750;49.002;9.204;2022-09-01T15:21:35;3.03;;;1.60;;
29876;SDS011;16750;49.002;9.204;2022-09-01T15:24:01;2.70;;;1.65;;
29876;SDS011;16750;49.002;9.204;2022-09-01T15:26:28;3.03;;;1.67;;
29876;SDS011;16750;49.002;9.204;2022-09-01T15:28:54;2.20;;;1.63;;
29876;SDS011;16750;49.002;9.204;2022-09-01T15:31:21;3.85;;;1.73;;
29876;SDS011;16750;49.002;9.204;2022-09-01T15:33:49;2.13;;;1.40;;
29876;SDS011;16750;49.002;9.204;2022-09-01T15:36:21;2.97;;;1.77;;
29876;SDS011;16750;49.002;9.204;2022-09-01T15:38:48;2.95;;;1.60;;
29876;SDS011;16750;49.002;9.204;2022-09-01T15:41:15;3.17;;;1.83;;
29876;SDS011;16750;49.002;9.204;2022-09-01T15:43:45;2.80;;;1.55;;
29876;SDS011;16750;49.002;9.204;2022-09-01T15:46:11;2.60;;;1.80;;
29876;SDS011;16750;49.002;9.204;2022-09-01T15:48:38;2.90;;;1.80;;
29876;SDS011;16750;49.002;9.204;2022-09-01T15:53:51;3.75;;;2.10;;
29876;SDS011;16750;49.002;9.204;2022-09-01T15:56:19;2.67;;;1.83;;
29876;SDS011;16750;49.002;9.204;2022-09-01T15:58:45;4.43;;;2.08;;
29876;SDS011;16750;49.002;9.204;2022-09-01T16:01:11;2.83;;;1.90;;
29876;SDS011;16750;49.002;9.204;2022-09-01T16:03:37;2.97;;;1.75;;
29876;SDS011;16750;49.002;9.204;2022-09-01T16:06:03;4.35;;;2.00;;
29876;SDS011;16750;49.002;9.204;2022-09-01T16:08:30;4.18;;;2.17;;
29876;SDS011;16750;49.002;9.204;2022-09-01T16:10:56;4.00;;;2.17;;
29876;SDS011;16750;49.002;9.204;2022-09-01T16:13:23;2.90;;;1.98;;
29876;SDS011;16750;49.002;9.204;2022-09-01T16:16:01;3.08;;;2.08;;
29876;SDS011;16750;49.002;9.204;2022-09-01T16:21:12;3.30;;;2.00;;